createdAt,value
2022-08-12T00:01:02.000Z,288.09
2022-08-12T00:03:08.000Z,288.02
2022-08-12T00:04:39.000Z,288.02
2022-08-12T00:06:45.000Z,287.84
2022-08-12T00:08:11.000Z,288.02
2022-08-12T00:10:17.000Z,287.9
2022-08-12T00:11:44.000Z,287.84
2022-08-12T00:13:50.000Z,287.77
2022-08-12T00:15:17.000Z,287.77
2022-08-12T00:17:23.000Z,287.59
2022-08-12T00:18:49.000Z,287.71
2022-08-12T00:20:56.000Z,287.65
2022-08-12T00:22:22.000Z,287.71
2022-08-12T00:24:28.000Z,287.52
2022-08-12T00:25:55.000Z,287.52
2022-08-12T00:28:28.000Z,287.52
2022-08-12T00:29:54.000Z,287.46
2022-08-12T00:32:01.000Z,287.46
2022-08-12T00:33:28.000Z,287.46
2022-08-12T00:35:55.000Z,287.46
2022-08-12T00:38:48.000Z,287.34
2022-08-12T00:40:15.000Z,287.27
2022-08-12T00:42:21.000Z,287.27
2022-08-12T00:43:47.000Z,287.34
2022-08-12T00:46:00.000Z,287.34
2022-08-12T00:47:26.000Z,287.34
2022-08-12T00:49:32.000Z,287.15
2022-08-12T00:50:59.000Z,287.09
2022-08-12T00:53:05.000Z,286.96
2022-08-12T00:54:31.000Z,286.96
2022-08-12T00:56:38.000Z,286.96
2022-08-12T00:58:04.000Z,286.96
2022-08-12T01:00:10.000Z,286.96
2022-08-12T01:01:37.000Z,287.02
2022-08-12T01:04:16.000Z,286.9
2022-08-12T01:05:43.000Z,286.9
2022-08-12T01:07:49.000Z,286.9
2022-08-12T01:09:15.000Z,286.84
2022-08-12T01:11:22.000Z,286.77
2022-08-12T01:12:48.000Z,286.71
2022-08-12T01:14:54.000Z,286.71
2022-08-12T01:17:45.000Z,286.65
2022-08-12T01:19:12.000Z,286.77
2022-08-12T01:21:26.000Z,286.59
2022-08-12T01:22:52.000Z,286.59
2022-08-12T01:24:58.000Z,286.59
2022-08-12T01:26:25.000Z,286.59
2022-08-12T01:28:31.000Z,286.4
2022-08-12T01:29:57.000Z,286.52
2022-08-12T01:32:03.000Z,286.4
2022-08-12T01:33:30.000Z,286.52
2022-08-12T01:35:36.000Z,286.46
2022-08-12T01:37:02.000Z,286.52
2022-08-12T01:39:08.000Z,286.4
2022-08-12T01:40:35.000Z,286.34
2022-08-12T01:42:43.000Z,286.27
2022-08-12T01:44:10.000Z,286.21
2022-08-12T01:46:19.000Z,286.21
2022-08-12T01:47:46.000Z,286.15
2022-08-12T01:49:52.000Z,286.09
2022-08-12T01:51:19.000Z,286.09
2022-08-12T01:54:24.000Z,286.09
2022-08-12T01:57:15.000Z,286.27
2022-08-12T01:59:24.000Z,286.15
2022-08-12T02:01:30.000Z,286.02
2022-08-12T02:02:57.000Z,286.09
2022-08-12T02:05:03.000Z,285.9
2022-08-12T02:06:29.000Z,285.84
2022-08-12T02:08:35.000Z,285.9
2022-08-12T02:10:02.000Z,285.96
2022-08-12T02:12:08.000Z,285.9
2022-08-12T02:13:35.000Z,285.84
2022-08-12T02:15:53.000Z,285.9
2022-08-12T02:17:20.000Z,285.9
2022-08-12T02:20:00.000Z,285.84
2022-08-12T02:21:26.000Z,285.77
2022-08-12T02:23:32.000Z,285.71
2022-08-12T02:24:59.000Z,285.71
2022-08-12T02:27:05.000Z,285.71
2022-08-12T02:28:31.000Z,285.77
2022-08-12T02:30:38.000Z,285.84
2022-08-12T02:32:06.000Z,285.77
2022-08-12T02:34:12.000Z,285.71
2022-08-12T02:37:04.000Z,285.52
2022-08-12T02:38:30.000Z,285.46
2022-08-12T02:40:36.000Z,285.34
2022-08-12T02:42:03.000Z,285.46
2022-08-12T02:44:09.000Z,285.4
2022-08-12T02:45:36.000Z,285.34
2022-08-12T02:47:42.000Z,285.34
2022-08-12T02:49:25.000Z,285.46
2022-08-12T02:51:31.000Z,285.46
2022-08-12T02:52:58.000Z,285.34
2022-08-12T02:55:04.000Z,285.27
2022-08-12T02:56:30.000Z,285.27
2022-08-12T02:58:36.000Z,285.27
2022-08-12T03:00:05.000Z,285.34
2022-08-12T03:02:12.000Z,285.21
2022-08-12T03:03:38.000Z,285.27
2022-08-12T03:05:44.000Z,285.15
2022-08-12T03:07:11.000Z,285.21
2022-08-12T03:09:17.000Z,285.15
2022-08-12T03:10:44.000Z,285.15
2022-08-12T03:12:52.000Z,285.09
2022-08-12T03:15:45.000Z,285.09
2022-08-12T03:17:11.000Z,285.09
2022-08-12T03:19:18.000Z,285.09
2022-08-12T03:20:44.000Z,285.02
2022-08-12T03:22:50.000Z,285.02
2022-08-12T03:24:17.000Z,285.09
2022-08-12T03:26:23.000Z,284.9
2022-08-12T03:27:49.000Z,284.84
2022-08-12T03:29:56.000Z,284.71
2022-08-12T03:31:22.000Z,284.77
2022-08-12T03:33:28.000Z,284.65
2022-08-12T03:34:55.000Z,284.65
2022-08-12T03:37:01.000Z,284.59
2022-08-12T03:38:27.000Z,284.59
2022-08-12T03:40:33.000Z,284.65
2022-08-12T03:42:00.000Z,284.71
2022-08-12T03:44:06.000Z,284.71
2022-08-12T03:45:33.000Z,284.71
2022-08-12T03:47:56.000Z,284.59
2022-08-12T03:49:22.000Z,284.52
2022-08-12T03:51:29.000Z,284.46
2022-08-12T03:54:20.000Z,284.4
2022-08-12T03:55:46.000Z,284.52
2022-08-12T03:57:52.000Z,284.52
2022-08-12T03:59:19.000Z,284.46
2022-08-12T04:01:25.000Z,284.4
2022-08-12T04:02:52.000Z,284.4
2022-08-12T04:04:58.000Z,284.34
2022-08-12T04:06:24.000Z,284.34
2022-08-12T04:08:39.000Z,284.15
2022-08-12T04:10:06.000Z,284.21
2022-08-12T04:12:12.000Z,284.15
2022-08-12T04:13:39.000Z,284.15
2022-08-12T04:15:45.000Z,284.09
2022-08-12T04:17:12.000Z,284.15
2022-08-12T04:19:18.000Z,284.09
2022-08-12T04:20:44.000Z,284.09
2022-08-12T04:22:50.000Z,284.09
2022-08-12T04:24:17.000Z,284.15
2022-08-12T04:26:23.000Z,284.09
2022-08-12T04:27:49.000Z,283.96
2022-08-12T04:29:56.000Z,284.02
2022-08-12T04:33:22.000Z,284.09
2022-08-12T04:34:48.000Z,284.21
2022-08-12T04:36:54.000Z,284.21
2022-08-12T04:38:21.000Z,284.21
2022-08-12T04:40:27.000Z,284.27
2022-08-12T04:41:53.000Z,284.4
2022-08-12T04:44:02.000Z,284.4
2022-08-12T04:45:29.000Z,284.4
2022-08-12T04:47:35.000Z,284.4
2022-08-12T04:49:01.000Z,284.34
2022-08-12T04:51:08.000Z,284.34
2022-08-12T04:52:34.000Z,284.34
2022-08-12T04:54:40.000Z,284.4
2022-08-12T04:56:07.000Z,284.4
2022-08-12T04:58:13.000Z,284.52
2022-08-12T04:59:54.000Z,284.52
2022-08-12T05:02:00.000Z,284.59
2022-08-12T05:03:27.000Z,284.71
2022-08-12T05:07:23.000Z,284.84
2022-08-12T05:07:57.000Z,284.84
2022-08-12T05:09:23.000Z,285.02
2022-08-12T05:12:03.000Z,285.15
2022-08-12T05:14:48.000Z,285.27
2022-08-12T05:16:15.000Z,285.27
2022-08-12T05:18:31.000Z,285.4
2022-08-12T05:19:59.000Z,285.46
2022-08-12T05:22:06.000Z,285.59
2022-08-12T05:23:32.000Z,285.59
2022-08-12T05:25:38.000Z,285.71
2022-08-12T05:27:05.000Z,285.71
2022-08-12T05:29:11.000Z,285.84
2022-08-12T05:31:33.000Z,285.9
2022-08-12T05:33:52.000Z,286.09
2022-08-12T05:35:18.000Z,286.09
2022-08-12T05:37:26.000Z,286.15
2022-08-12T05:38:53.000Z,286.15
2022-08-12T05:40:59.000Z,286.27
2022-08-12T05:42:25.000Z,286.34
2022-08-12T05:44:44.000Z,286.4
2022-08-12T05:46:11.000Z,286.46
2022-08-12T05:48:17.000Z,286.59
2022-08-12T05:49:43.000Z,286.65
2022-08-12T05:51:49.000Z,286.71
2022-08-12T05:54:41.000Z,286.84
2022-08-12T05:56:22.000Z,286.96
2022-08-12T05:58:28.000Z,287.09
2022-08-12T05:59:54.000Z,287.09
2022-08-12T06:02:01.000Z,287.21
2022-08-12T06:03:37.000Z,287.21
2022-08-12T06:05:44.000Z,287.34
2022-08-12T06:07:19.000Z,287.4
2022-08-12T06:10:05.000Z,287.59
2022-08-12T06:11:31.000Z,287.65
2022-08-12T06:13:37.000Z,287.71
2022-08-12T06:15:19.000Z,287.77
2022-08-12T06:17:25.000Z,287.96
2022-08-12T06:18:51.000Z,288.02
2022-08-12T06:20:57.000Z,288.02
2022-08-12T06:22:26.000Z,288.21
2022-08-12T06:24:32.000Z,288.27
2022-08-12T06:25:59.000Z,288.46
2022-08-12T06:28:05.000Z,288.65
2022-08-12T06:29:33.000Z,288.71
2022-08-12T06:32:14.000Z,288.84
2022-08-12T06:35:07.000Z,288.9
2022-08-12T06:36:52.000Z,288.96
2022-08-12T06:38:58.000Z,289.21
2022-08-12T06:40:25.000Z,289.27
2022-08-12T06:42:35.000Z,289.59
2022-08-12T06:44:01.000Z,289.71
2022-08-12T06:46:11.000Z,289.77
2022-08-12T06:47:38.000Z,289.9
2022-08-12T06:49:44.000Z,289.96
2022-08-12T06:51:10.000Z,290.09
2022-08-12T06:53:16.000Z,290.21
2022-08-12T06:54:43.000Z,290.34
2022-08-12T06:56:49.000Z,290.65
2022-08-12T06:58:29.000Z,290.65
2022-08-12T07:00:35.000Z,290.65
2022-08-12T07:02:02.000Z,290.71
2022-08-12T07:04:08.000Z,290.84
2022-08-12T07:06:00.000Z,290.84
2022-08-12T07:08:06.000Z,290.9
2022-08-12T07:09:34.000Z,291.02
2022-08-12T07:12:11.000Z,291.21
2022-08-12T07:15:02.000Z,291.4
2022-08-12T07:16:29.000Z,291.46
2022-08-12T07:18:39.000Z,291.52
2022-08-12T07:20:05.000Z,291.59
2022-08-12T07:22:11.000Z,291.84
2022-08-12T07:23:38.000Z,291.9
2022-08-12T07:25:44.000Z,292.02
2022-08-12T07:27:10.000Z,292.02
2022-08-12T07:29:16.000Z,292.27
2022-08-12T07:30:43.000Z,292.27
2022-08-12T07:32:49.000Z,292.27
2022-08-12T07:34:16.000Z,292.59
2022-08-12T07:36:22.000Z,292.59
2022-08-12T07:37:48.000Z,292.84
2022-08-12T07:39:54.000Z,292.9
2022-08-12T07:41:25.000Z,292.84
2022-08-12T07:43:31.000Z,293.02
2022-08-12T07:44:58.000Z,293.15
2022-08-12T07:47:04.000Z,293.27
2022-08-12T07:48:30.000Z,293.34
2022-08-12T07:50:37.000Z,293.52
2022-08-12T07:53:28.000Z,293.77
2022-08-12T07:54:55.000Z,294.02
2022-08-12T07:57:01.000Z,294.02
2022-08-12T07:58:27.000Z,293.96
2022-08-12T08:00:33.000Z,294.09
2022-08-12T08:02:00.000Z,294.09
2022-08-12T08:04:06.000Z,294.21
2022-08-12T08:05:33.000Z,294.34
2022-08-12T08:07:39.000Z,294.34
2022-08-12T08:09:06.000Z,294.46
2022-08-12T08:11:12.000Z,294.65
2022-08-12T08:12:39.000Z,294.71
2022-08-12T08:14:46.000Z,295.02
2022-08-12T08:16:14.000Z,295.09
2022-08-12T08:18:21.000Z,295.21
2022-08-12T08:19:51.000Z,295.21
2022-08-12T08:22:08.000Z,295.21
2022-08-12T08:23:34.000Z,295.27
2022-08-12T08:25:41.000Z,295.21
2022-08-12T08:27:08.000Z,295.4
2022-08-12T08:29:14.000Z,295.4
2022-08-12T08:32:05.000Z,295.71
2022-08-12T08:33:31.000Z,295.77
2022-08-12T08:36:19.000Z,296.02
2022-08-12T08:37:48.000Z,296.09
2022-08-12T08:39:54.000Z,296.21
2022-08-12T08:41:21.000Z,296.21
2022-08-12T08:44:23.000Z,296.59
2022-08-12T08:45:50.000Z,296.65
2022-08-12T08:47:56.000Z,296.52
2022-08-12T08:49:24.000Z,296.59
2022-08-12T08:51:31.000Z,296.84
2022-08-12T08:52:57.000Z,296.9
2022-08-12T08:55:04.000Z,296.9
2022-08-12T08:56:30.000Z,297.02
2022-08-12T08:58:36.000Z,297.15
2022-08-12T09:00:03.000Z,297.27
2022-08-12T09:02:09.000Z,297.4
2022-08-12T09:03:36.000Z,297.46
2022-08-12T09:07:15.000Z,297.77
2022-08-12T09:31:43.000Z,298.65
2022-08-12T09:33:33.000Z,298.77
2022-08-12T09:36:37.000Z,298.77
2022-08-12T09:38:26.000Z,298.9
2022-08-12T09:40:35.000Z,299.02
2022-08-12T09:43:57.000Z,298.84
2022-08-12T09:46:08.000Z,299.09
2022-08-12T09:47:46.000Z,299.15
2022-08-12T09:50:03.000Z,299.15
2022-08-12T09:51:44.000Z,299.4
2022-08-12T09:53:54.000Z,299.21
2022-08-12T09:55:56.000Z,299.27
2022-08-12T09:59:06.000Z,299.34
2022-08-12T10:00:33.000Z,299.34
2022-08-12T10:02:56.000Z,299.46
2022-08-12T10:04:23.000Z,299.65
2022-08-12T10:06:29.000Z,299.71
2022-08-12T10:08:01.000Z,299.77
2022-08-12T10:10:07.000Z,299.77
2022-08-12T10:11:49.000Z,299.84
2022-08-12T10:14:16.000Z,300.02
2022-08-12T10:17:23.000Z,300.21
2022-08-12T10:18:50.000Z,300.21
2022-08-12T10:20:57.000Z,299.9
2022-08-12T10:22:23.000Z,299.77
2022-08-12T10:24:45.000Z,299.9
2022-08-12T10:26:17.000Z,300.02
2022-08-12T10:28:43.000Z,299.84
2022-08-12T10:30:27.000Z,299.71
2022-08-12T10:32:46.000Z,299.9
2022-08-12T10:34:21.000Z,300.02
2022-08-12T10:36:30.000Z,300.15
2022-08-12T10:38:07.000Z,300.27
2022-08-12T10:42:13.000Z,300.4
2022-08-12T10:42:49.000Z,300.4
2022-08-12T10:44:16.000Z,300.52
2022-08-12T10:46:22.000Z,300.59
2022-08-12T10:47:56.000Z,300.65
2022-08-12T10:50:26.000Z,300.71
2022-08-12T10:52:27.000Z,300.65
2022-08-12T10:54:41.000Z,300.65
2022-08-12T10:56:13.000Z,300.71
2022-08-12T10:58:20.000Z,300.71
2022-08-12T11:01:13.000Z,300.52
2022-08-12T11:05:46.000Z,300.71
2022-08-12T11:10:24.000Z,301.02
2022-08-12T11:11:51.000Z,301.09
2022-08-12T11:14:40.000Z,301.09
2022-08-12T11:16:15.000Z,300.96
2022-08-12T11:18:27.000Z,301.02
2022-08-12T11:19:54.000Z,301.21
2022-08-12T11:22:00.000Z,301.21
2022-08-12T11:23:27.000Z,301.02
2022-08-12T11:25:41.000Z,301.09
2022-08-12T11:27:22.000Z,301.21
2022-08-12T11:29:33.000Z,301.27
2022-08-12T11:31:31.000Z,301.4
2022-08-12T11:34:06.000Z,301.52
2022-08-12T11:36:19.000Z,301.34
2022-08-12T11:38:26.000Z,301.46
2022-08-12T11:42:11.000Z,301.59
2022-08-12T11:43:37.000Z,301.59
2022-08-12T11:46:02.000Z,301.21
2022-08-12T11:48:53.000Z,301.52
2022-08-12T11:50:20.000Z,301.52
2022-08-12T11:52:36.000Z,301.71
2022-08-12T11:54:20.000Z,301.71
2022-08-12T11:56:26.000Z,301.96
2022-08-12T11:58:03.000Z,301.96
2022-08-12T12:01:48.000Z,302.02
2022-08-12T12:03:28.000Z,302.09
2022-08-12T12:05:50.000Z,302.02
2022-08-12T12:07:16.000Z,302.15
2022-08-12T12:09:23.000Z,301.84
2022-08-12T12:10:49.000Z,302.02
2022-08-12T12:12:55.000Z,302.21
2022-08-12T12:14:22.000Z,302.27
2022-08-12T12:16:43.000Z,302.34
2022-08-12T12:18:14.000Z,302.34
2022-08-12T12:20:26.000Z,302.4
2022-08-12T12:21:55.000Z,302.46
2022-08-12T12:24:01.000Z,302.4
2022-08-12T12:25:27.000Z,302.34
2022-08-12T12:28:12.000Z,302.52
2022-08-12T12:31:27.000Z,302.52
2022-08-12T12:33:36.000Z,302.46
2022-08-12T12:36:02.000Z,302.52
2022-08-12T12:37:46.000Z,302.77
2022-08-12T12:40:09.000Z,302.77
2022-08-12T12:41:36.000Z,302.9
2022-08-12T12:44:59.000Z,302.96
2022-08-12T12:46:43.000Z,303.02
2022-08-12T12:50:22.000Z,302.96
2022-08-12T12:51:07.000Z,303.02
2022-08-12T12:52:36.000Z,303.09
2022-08-12T12:54:46.000Z,303.21
2022-08-12T12:56:13.000Z,302.9
2022-08-12T12:58:19.000Z,302.59
2022-08-12T12:59:46.000Z,302.34
2022-08-12T13:02:00.000Z,302.4
2022-08-12T13:03:32.000Z,302.59
2022-08-12T13:05:53.000Z,302.52
2022-08-12T13:07:20.000Z,302.65
2022-08-12T13:09:53.000Z,302.96
2022-08-12T13:11:26.000Z,303.09
2022-08-12T13:13:45.000Z,303.09
2022-08-12T13:16:51.000Z,302.96
2022-08-12T13:18:18.000Z,302.71
2022-08-12T13:20:32.000Z,302.46
2022-08-12T13:22:04.000Z,302.84
2022-08-12T13:24:10.000Z,302.96
2022-08-12T13:25:37.000Z,303.09
2022-08-12T13:27:43.000Z,303.21
2022-08-12T13:29:12.000Z,303.34
2022-08-12T13:31:19.000Z,302.96
2022-08-12T13:32:49.000Z,302.46
2022-08-12T13:35:02.000Z,302.4
2022-08-12T13:36:57.000Z,302.21
2022-08-12T13:39:03.000Z,302.52
2022-08-12T13:40:31.000Z,302.59
2022-08-12T13:42:37.000Z,302.71
2022-08-12T13:44:04.000Z,302.9
2022-08-12T13:46:14.000Z,303.09
2022-08-12T13:47:41.000Z,303.27
2022-08-12T13:49:49.000Z,303.4
2022-08-12T13:51:20.000Z,303.4
2022-08-12T13:53:28.000Z,303.52
2022-08-12T13:56:48.000Z,303.4
2022-08-12T13:58:18.000Z,303.15
2022-08-12T14:00:24.000Z,303.09
2022-08-12T14:02:02.000Z,303.09
2022-08-12T14:04:09.000Z,303.4
2022-08-12T14:05:37.000Z,303.46
2022-08-12T14:07:43.000Z,303.09
2022-08-12T14:09:13.000Z,302.9
2022-08-12T14:11:23.000Z,302.59
2022-08-12T14:12:52.000Z,302.34
2022-08-12T14:15:00.000Z,302.46
2022-08-12T14:16:27.000Z,302.59
2022-08-12T14:18:53.000Z,302.65
2022-08-12T14:20:21.000Z,302.9
2022-08-12T14:22:30.000Z,303.21
2022-08-12T14:23:57.000Z,303.46
2022-08-12T14:26:10.000Z,303.77
2022-08-12T14:27:41.000Z,303.59
2022-08-12T14:30:10.000Z,303.15
2022-08-12T14:31:48.000Z,302.96
2022-08-12T14:33:55.000Z,302.9
2022-08-12T14:36:47.000Z,302.52
2022-08-12T14:38:13.000Z,302.34
2022-08-12T14:40:19.000Z,302.15
2022-08-12T14:41:52.000Z,302.02
2022-08-12T14:44:01.000Z,302.15
2022-08-12T14:46:22.000Z,302.71
2022-08-12T14:48:31.000Z,303.02
2022-08-12T14:49:58.000Z,303.21
2022-08-12T14:58:53.000Z,303.34
2022-08-12T15:00:25.000Z,303.02
2022-08-12T15:02:32.000Z,302.96
2022-08-12T15:03:58.000Z,302.52
2022-08-12T15:06:05.000Z,302.27
2022-08-12T15:08:16.000Z,302.15
2022-08-12T15:10:26.000Z,302.27
2022-08-12T15:11:58.000Z,302.59
2022-08-12T15:14:08.000Z,302.9
2022-08-12T15:15:38.000Z,302.96
2022-08-12T15:17:50.000Z,303.21
2022-08-12T15:20:48.000Z,303.4
2022-08-12T15:22:15.000Z,303.52
2022-08-12T15:24:42.000Z,303.84
2022-08-12T15:26:09.000Z,303.96
2022-08-12T15:28:25.000Z,304.02
2022-08-12T15:29:53.000Z,303.77
2022-08-12T15:31:59.000Z,303.9
2022-08-12T15:33:30.000Z,303.59
2022-08-12T15:35:50.000Z,303.21
2022-08-12T15:37:18.000Z,303.02
2022-08-12T15:40:13.000Z,302.46
2022-08-12T15:41:54.000Z,302.4
2022-08-12T15:44:06.000Z,302.21
2022-08-12T15:46:03.000Z,302.09
2022-08-12T15:48:09.000Z,302.09
2022-08-12T15:49:44.000Z,302.27
2022-08-12T15:52:05.000Z,302.09
2022-08-12T15:53:34.000Z,302.02
2022-08-12T15:55:41.000Z,302.27
2022-08-12T15:57:11.000Z,302.46
2022-08-12T15:59:21.000Z,302.71
2022-08-12T16:02:49.000Z,302.84
2022-08-12T16:04:15.000Z,302.71
2022-08-12T16:06:22.000Z,302.65
2022-08-12T16:08:23.000Z,302.77
2022-08-12T16:10:32.000Z,302.9
2022-08-12T16:11:58.000Z,302.84
2022-08-12T16:14:04.000Z,302.84
2022-08-12T16:15:34.000Z,302.96
2022-08-12T16:17:46.000Z,303.02
2022-08-12T16:19:44.000Z,303.09
2022-08-12T16:22:08.000Z,302.96
2022-08-12T16:23:36.000Z,302.96
2022-08-12T16:25:59.000Z,303.02
2022-08-12T16:27:30.000Z,303.09
2022-08-12T16:29:42.000Z,303.02
2022-08-12T16:31:18.000Z,303.02
2022-08-12T16:33:27.000Z,303.09
2022-08-12T16:35:00.000Z,303.09
2022-08-12T16:37:06.000Z,303.02
2022-08-12T16:38:32.000Z,302.9
2022-08-12T16:40:40.000Z,302.96
2022-08-12T16:43:35.000Z,302.9
2022-08-12T16:45:01.000Z,302.84
2022-08-12T16:47:12.000Z,302.84
2022-08-12T16:48:39.000Z,302.65
2022-08-12T16:50:45.000Z,302.65
2022-08-12T16:52:12.000Z,302.65
2022-08-12T16:54:18.000Z,302.65
2022-08-12T16:55:51.000Z,302.65
2022-08-12T16:57:57.000Z,302.59
2022-08-12T16:59:25.000Z,302.59
2022-08-12T17:01:35.000Z,302.46
2022-08-12T17:03:02.000Z,302.59
2022-08-12T17:05:08.000Z,302.59
2022-08-12T17:06:35.000Z,302.46
2022-08-12T17:08:43.000Z,302.46
2022-08-12T17:10:20.000Z,302.34
2022-08-12T17:12:41.000Z,302.4
2022-08-12T17:14:08.000Z,302.34
2022-08-12T17:16:15.000Z,302.09
2022-08-12T17:17:42.000Z,301.84
2022-08-12T17:19:48.000Z,301.84
2022-08-12T17:23:25.000Z,301.96
2022-08-12T17:25:12.000Z,301.84
2022-08-12T17:27:19.000Z,301.59
2022-08-12T17:28:45.000Z,301.52
2022-08-12T17:30:56.000Z,301.34
2022-08-12T17:32:24.000Z,301.21
2022-08-12T17:34:32.000Z,301.15
2022-08-12T17:35:59.000Z,301.09
2022-08-12T17:38:06.000Z,300.9
2022-08-12T17:39:36.000Z,300.84
2022-08-12T17:42:21.000Z,300.71
2022-08-12T17:43:59.000Z,300.71
2022-08-12T17:46:05.000Z,300.65
2022-08-12T17:47:37.000Z,300.59
2022-08-12T17:49:43.000Z,300.52
2022-08-12T17:51:28.000Z,300.46
2022-08-12T17:53:35.000Z,300.34
2022-08-12T17:55:31.000Z,300.34
2022-08-12T17:57:51.000Z,300.21
2022-08-12T17:59:18.000Z,300.15
2022-08-12T18:01:53.000Z,300.02
2022-08-12T18:04:44.000Z,299.96
2022-08-12T18:06:30.000Z,299.9
2022-08-12T18:08:36.000Z,299.84
2022-08-12T18:10:06.000Z,299.77
2022-08-12T18:12:12.000Z,299.77
2022-08-12T18:13:48.000Z,299.84
2022-08-12T18:15:55.000Z,299.65
2022-08-12T18:17:30.000Z,299.59
2022-08-12T18:19:43.000Z,299.46
2022-08-12T18:21:31.000Z,299.34
2022-08-12T18:24:07.000Z,299.27
2022-08-12T18:25:47.000Z,299.27
2022-08-12T18:28:21.000Z,299.21
2022-08-12T18:29:53.000Z,299.21
2022-08-12T18:32:07.000Z,299.09
2022-08-12T18:34:17.000Z,299.02
2022-08-12T18:36:24.000Z,298.9
2022-08-12T18:37:50.000Z,298.9
2022-08-12T18:39:58.000Z,298.9
2022-08-12T18:41:24.000Z,298.84
2022-08-12T18:43:31.000Z,298.77
2022-08-12T18:46:48.000Z,298.59
2022-08-12T18:48:19.000Z,298.59
2022-08-12T18:50:25.000Z,298.46
2022-08-12T18:52:14.000Z,298.34
2022-08-12T18:54:21.000Z,298.34
2022-08-12T18:55:47.000Z,298.34
2022-08-12T18:58:03.000Z,298.27
2022-08-12T18:59:34.000Z,298.15
2022-08-12T19:02:07.000Z,298.15
2022-08-12T19:03:46.000Z,298.09
2022-08-12T19:05:53.000Z,298.02
2022-08-12T19:07:19.000Z,297.9
2022-08-12T19:09:25.000Z,297.84
2022-08-12T19:11:22.000Z,297.77
2022-08-12T19:13:30.000Z,297.65
2022-08-12T19:14:58.000Z,297.46
2022-08-12T19:17:08.000Z,297.34
2022-08-12T19:18:36.000Z,297.09
2022-08-12T19:20:44.000Z,296.84
2022-08-12T19:22:12.000Z,296.65
2022-08-12T19:24:33.000Z,296.4
2022-08-12T19:27:25.000Z,296.15
2022-08-12T19:28:57.000Z,295.84
2022-08-12T19:31:03.000Z,295.77
2022-08-12T19:32:29.000Z,295.59
2022-08-12T19:36:31.000Z,295.21
2022-08-12T19:38:37.000Z,295.09
2022-08-12T19:40:21.000Z,295.02
2022-08-12T19:42:37.000Z,294.84
2022-08-12T19:44:12.000Z,294.9
2022-08-12T19:46:22.000Z,294.9
2022-08-12T19:47:52.000Z,294.71
2022-08-12T19:49:58.000Z,294.4
2022-08-12T19:51:25.000Z,294.21
2022-08-12T19:53:37.000Z,294.09
2022-08-12T19:55:22.000Z,294.02
2022-08-12T19:57:28.000Z,293.9
2022-08-12T19:58:57.000Z,293.71
2022-08-12T20:01:04.000Z,293.71
2022-08-12T20:02:35.000Z,293.71
2022-08-12T20:04:44.000Z,293.71
2022-08-12T20:08:14.000Z,293.4
2022-08-12T20:09:58.000Z,293.34
2022-08-12T20:12:04.000Z,293.46
2022-08-12T20:13:40.000Z,293.52
2022-08-12T20:15:47.000Z,293.34
2022-08-12T20:17:14.000Z,293.15
2022-08-12T20:21:00.000Z,292.96
2022-08-12T20:23:12.000Z,292.71
2022-08-12T20:24:55.000Z,292.77
2022-08-12T20:26:22.000Z,292.9
2022-08-12T20:28:31.000Z,292.9
2022-08-12T20:29:57.000Z,292.84
2022-08-12T20:32:03.000Z,292.59
2022-08-12T20:33:33.000Z,292.71
2022-08-12T20:35:59.000Z,292.59
2022-08-12T20:38:06.000Z,292.4
2022-08-12T20:40:31.000Z,292.46
2022-08-12T20:42:02.000Z,292.27
2022-08-12T20:44:11.000Z,292.21
2022-08-12T20:45:41.000Z,292.34
2022-08-12T20:47:55.000Z,292.15
2022-08-12T20:49:29.000Z,292.15
2022-08-12T20:51:37.000Z,292.21
2022-08-12T20:53:20.000Z,292.09
2022-08-12T20:56:01.000Z,291.9
2022-08-12T20:57:28.000Z,291.77
2022-08-12T20:59:43.000Z,291.96
2022-08-12T21:01:14.000Z,291.77
2022-08-12T21:03:30.000Z,291.71
2022-08-12T21:06:24.000Z,291.59
2022-08-12T21:07:51.000Z,291.27
2022-08-12T21:09:57.000Z,291.27
2022-08-12T21:11:23.000Z,291.4
2022-08-12T21:13:29.000Z,291.27
2022-08-12T21:15:04.000Z,291.27
2022-08-12T21:17:28.000Z,291.02
2022-08-12T21:19:34.000Z,290.96
2022-08-12T21:21:58.000Z,290.96
2022-08-12T21:23:27.000Z,290.96
2022-08-12T21:25:35.000Z,290.84
2022-08-12T21:27:09.000Z,290.9
2022-08-12T21:29:21.000Z,290.77
2022-08-12T21:30:52.000Z,290.84
2022-08-12T21:34:42.000Z,290.59
2022-08-12T21:36:09.000Z,290.59
2022-08-12T21:38:27.000Z,290.52
2022-08-12T21:39:59.000Z,290.46
2022-08-12T21:42:17.000Z,290.52
2022-08-12T21:43:52.000Z,290.46
2022-08-12T21:46:05.000Z,290.34
2022-08-12T21:49:12.000Z,290.21
2022-08-12T21:51:19.000Z,290.21
2022-08-12T21:53:27.000Z,290.02
2022-08-12T21:55:32.000Z,290.02
2022-08-12T21:59:11.000Z,289.77
2022-08-12T21:59:46.000Z,289.77
2022-08-12T22:01:18.000Z,289.84
2022-08-12T22:03:27.000Z,289.84
2022-08-12T22:05:36.000Z,289.71
2022-08-12T22:07:42.000Z,289.65
2022-08-12T22:09:22.000Z,289.65
2022-08-12T22:11:32.000Z,289.52
2022-08-12T22:13:08.000Z,289.52
2022-08-12T22:16:12.000Z,289.34
2022-08-12T22:17:39.000Z,289.4
2022-08-12T22:19:59.000Z,289.27
2022-08-12T22:21:26.000Z,289.27
2022-08-12T22:23:33.000Z,289.34
2022-08-12T22:25:30.000Z,289.21
2022-08-12T22:27:36.000Z,289.21
2022-08-12T22:29:03.000Z,289.15
2022-08-12T22:31:09.000Z,289.15
2022-08-12T22:33:58.000Z,289.15
2022-08-12T22:35:27.000Z,289.09
2022-08-12T22:37:59.000Z,288.96
2022-08-12T22:39:25.000Z,288.96
2022-08-12T22:41:35.000Z,288.96
2022-08-12T22:43:07.000Z,289.02
2022-08-12T22:45:19.000Z,289.02
2022-08-12T22:46:47.000Z,289.02
2022-08-12T22:48:57.000Z,288.96
2022-08-12T22:50:25.000Z,288.9
2022-08-12T22:52:32.000Z,288.84
2022-08-12T22:53:59.000Z,288.84
2022-08-12T22:56:05.000Z,288.84
2022-08-12T22:57:32.000Z,288.77
2022-08-12T22:59:59.000Z,288.71
2022-08-12T23:01:25.000Z,288.65
2022-08-12T23:04:06.000Z,288.65
2022-08-12T23:05:35.000Z,288.59
2022-08-12T23:08:09.000Z,288.52
2022-08-12T23:09:42.000Z,288.52
2022-08-12T23:11:53.000Z,288.59
2022-08-12T23:14:48.000Z,288.46
2022-08-12T23:16:15.000Z,288.46
2022-08-12T23:18:33.000Z,288.46
2022-08-12T23:20:00.000Z,288.46
2022-08-12T23:22:06.000Z,288.52
2022-08-12T23:24:01.000Z,288.4
2022-08-12T23:26:14.000Z,288.34
2022-08-12T23:27:44.000Z,288.34
2022-08-12T23:29:56.000Z,288.34
2022-08-12T23:31:24.000Z,288.27
2022-08-12T23:34:07.000Z,288.21
2022-08-12T23:35:34.000Z,288.15
2022-08-12T23:38:07.000Z,288.09
2022-08-12T23:39:33.000Z,288.09
2022-08-12T23:42:22.000Z,287.96
2022-08-12T23:43:55.000Z,287.96
2022-08-12T23:46:05.000Z,287.84
2022-08-12T23:47:31.000Z,287.9
2022-08-12T23:49:42.000Z,287.96
2022-08-12T23:51:24.000Z,287.84
2022-08-12T23:53:30.000Z,287.84
2022-08-12T23:56:22.000Z,287.65
2022-08-12T23:57:49.000Z,287.65
